Airfield :
LOGIN :

Register | Disclaimer

   EN    FR    IT 

 










Legend :    VFR   Marginal VFR   IFR   Intensive IFR   Very Intensive IFR
Visi :
Ceiling :
>= 8 km
>= 3000ft
5 to 8 km
1000 to 3000 ft
1500m to 5 km
500 to 1000 ft
800 to 1500m
200 to 500 ft
< 800m
< 200 ft
Symbols :   Thunderstorms  Fog  Heavy snow  Heavy precipitations  Wind > 20 kt
SIGMETs :     Misc.  Thunderstorms  Icing  Turbulence  Mountain Waves  Volcanic Ashes







- Airport Elevation : 294 ft
- IATA code : NAP


LIRN - Naples Capodichino

CURRENT METAR :
  • 241720Z 04005KT 010V070 9999 SCT040 BKN070 22/16 Q1017 TEMPO RA

EXPIRED METARs :
  • 241650Z 03005KT 350V070 9999 -RA SCT040 BKN070 21/15 Q1017 NOSIG
  • 241620Z 28003KT 240V300 9999 SCT040 BKN070 21/15 Q1017 NOSIG
  • 241550Z 30011KT 9999 SCT040 BKN070 22/15 Q1017 NOSIG
  • 241520Z 28007KT 260V350 9999 SCT040 23/13 Q1017 NOSIG
  • 241450Z 29008KT 260V330 9999 SCT040 24/12 Q1016 NOSIG

TAF TAF LIRN
Valid from the 24 at 18:00 until the 25 at 18:00 UTC


241700Z 2418/2518 VRB05KT 9999 SCT040
TEMPO 2509/2512 4000 SHRA
BECMG 2516/2518 04010KT
No reported NOTAMs for that airfield.



MET'MAP, your aeronautical weather chart ! - Copyright ORBIFLY December 2007 - Disclaimer

ORBIFLY MET'MAP TEAM :

Programming & Development : Alexandra Zaïnal
Concept & Development : Baudouin d'Aumeries
Co-Development & Prog : Marc-Olivier Méhu
Technical & hardware support : Manuel Goepfert

Contact : metmap@orbifly.com




SOURCES & CREDITS :

   NOAA